createdAt,value
2023-02-27T00:00:01.442Z,69.08
2023-02-27T00:05:00.652Z,68.96
2023-02-27T00:10:00.648Z,69.30
2023-02-27T00:15:00.646Z,69.02
2023-02-27T00:20:00.843Z,69.17
2023-02-27T00:25:00.659Z,69.43
2023-02-27T00:30:00.650Z,69.50
2023-02-27T00:35:01.989Z,69.85
2023-02-27T00:40:01.956Z,69.41
2023-02-27T00:45:00.799Z,69.26
2023-02-27T00:50:00.948Z,69.64
2023-02-27T00:55:00.842Z,69.61
2023-02-27T01:00:01.180Z,69.09
2023-02-27T01:05:00.853Z,70.13
2023-02-27T01:10:00.623Z,69.75
2023-02-27T01:15:00.748Z,70.12
2023-02-27T01:20:00.764Z,69.01
2023-02-27T01:25:00.812Z,69.81
2023-02-27T01:30:01.113Z,69.82
2023-02-27T01:35:00.668Z,69.86
2023-02-27T01:40:00.982Z,70.18
2023-02-27T01:45:07.738Z,71.20
2023-02-27T01:50:00.719Z,70.68
2023-02-27T01:55:02.378Z,70.35
2023-02-27T02:00:02.919Z,70.22
2023-02-27T02:05:01.239Z,70.18
2023-02-27T02:10:01.420Z,70.16
2023-02-27T02:15:01.024Z,70.06
2023-02-27T02:20:20.568Z,71.20
2023-02-27T02:25:20.512Z,71.23
2023-02-27T02:30:20.548Z,71.45
2023-02-27T02:35:20.564Z,71.64
2023-02-27T02:40:10.950Z,71.63
2023-02-27T02:45:09.037Z,71.95
2023-02-27T02:50:13.597Z,72.40
2023-02-27T02:55:11.887Z,72.67
2023-02-27T03:00:09.546Z,72.73
2023-02-27T03:05:08.154Z,72.34
2023-02-27T03:10:04.858Z,72.14
2023-02-27T03:15:07.343Z,72.56
2023-02-27T03:20:05.737Z,72.52
2023-02-27T03:25:06.365Z,72.41
2023-02-27T03:30:14.801Z,72.46
2023-02-27T03:35:03.465Z,71.91
2023-02-27T03:40:20.520Z,72.50
2023-02-27T03:45:18.008Z,72.82
2023-02-27T03:50:00.829Z,72.56
2023-02-27T03:55:08.671Z,72.50
2023-02-27T04:00:03.168Z,74.14
2023-02-27T04:05:00.690Z,74.67
2023-02-27T04:10:10.555Z,73.07
2023-02-27T04:15:16.593Z,73.08
2023-02-27T04:20:16.609Z,73.45
2023-02-27T04:25:03.907Z,75.30
2023-02-27T04:30:19.510Z,73.24
2023-02-27T04:35:07.283Z,73.21
2023-02-27T04:40:07.332Z,73.20
2023-02-27T04:45:04.808Z,75.90
2023-02-27T04:50:08.644Z,73.26
2023-02-27T04:55:10.673Z,73.18
2023-02-27T05:00:05.248Z,73.07
2023-02-27T05:05:05.220Z,72.98
2023-02-27T05:10:06.300Z,72.92
2023-02-27T05:15:09.800Z,72.94
2023-02-27T05:20:01.927Z,76.02
2023-02-27T05:25:13.439Z,73.28
2023-02-27T05:30:14.184Z,73.63
2023-02-27T05:35:10.223Z,73.60
2023-02-27T05:40:04.421Z,76.71
2023-02-27T05:45:08.556Z,74.42
2023-02-27T05:50:05.826Z,74.68
2023-02-27T05:55:05.509Z,74.95
2023-02-27T06:00:14.417Z,75.55
2023-02-27T06:05:00.765Z,77.28
2023-02-27T06:10:01.057Z,77.81
2023-02-27T06:15:00.641Z,77.51
2023-02-27T06:20:00.675Z,77.33
2023-02-27T06:25:00.852Z,77.29
2023-02-27T06:30:00.673Z,77.36
2023-02-27T06:35:00.907Z,77.24
2023-02-27T06:40:00.821Z,76.91
2023-02-27T06:45:00.638Z,76.85
2023-02-27T06:50:00.686Z,76.93
2023-02-27T06:55:00.613Z,77.73
2023-02-27T07:00:03.618Z,77.75
2023-02-27T07:05:00.772Z,77.51
2023-02-27T07:10:00.668Z,77.62
2023-02-27T07:15:00.695Z,78.00
2023-02-27T07:20:00.668Z,78.60
2023-02-27T07:25:00.658Z,75.71
2023-02-27T07:30:00.677Z,69.76
2023-02-27T07:35:00.620Z,70.48
2023-02-27T07:40:00.880Z,69.47
2023-02-27T07:45:00.712Z,68.28
2023-02-27T07:50:00.683Z,66.61
2023-02-27T07:55:00.656Z,66.40
2023-02-27T08:00:02.734Z,69.16
2023-02-27T08:05:00.629Z,63.94
2023-02-27T08:10:00.635Z,58.87
2023-02-27T08:15:00.948Z,55.13
2023-02-27T08:20:00.672Z,51.28
2023-02-27T08:25:00.658Z,49.38
2023-02-27T08:30:00.684Z,46.41
2023-02-27T08:35:00.836Z,48.41
2023-02-27T08:40:00.753Z,46.14
2023-02-27T08:45:00.650Z,42.87
2023-02-27T08:50:00.668Z,47.01
2023-02-27T08:55:00.709Z,49.90
2023-02-27T09:00:01.473Z,48.35
2023-02-27T09:05:00.615Z,50.48
2023-02-27T09:10:00.688Z,50.92
2023-02-27T09:15:00.710Z,49.78
2023-02-27T09:20:00.625Z,47.53
2023-02-27T09:25:00.647Z,46.66
2023-02-27T09:30:00.799Z,47.08
2023-02-27T09:35:00.669Z,45.50
2023-02-27T09:40:00.831Z,43.44
2023-02-27T09:45:06.036Z,41.19
2023-02-27T09:50:05.324Z,39.65
2023-02-27T09:55:01.830Z,42.74
2023-02-27T10:00:10.680Z,42.77
2023-02-27T10:05:13.729Z,41.57
2023-02-27T10:10:11.857Z,40.38
2023-02-27T10:15:14.906Z,39.83
2023-02-27T10:20:05.568Z,38.48
2023-02-27T10:25:08.978Z,38.14
2023-02-27T10:30:29.188Z,36.68
2023-02-27T10:35:20.518Z,39.46
2023-02-27T10:40:02.971Z,39.14
2023-02-27T10:45:01.569Z,38.61
2023-02-27T10:50:00.638Z,37.39
2023-02-27T10:55:16.062Z,34.74
2023-02-27T11:00:04.982Z,35.99
2023-02-27T11:05:01.618Z,39.16
2023-02-27T11:10:13.913Z,38.12
2023-02-27T11:15:12.179Z,43.32
2023-02-27T11:20:02.654Z,42.50
2023-02-27T11:25:19.413Z,44.69
2023-02-27T11:30:06.128Z,45.69
2023-02-27T11:35:01.026Z,45.34
2023-02-27T11:40:11.576Z,45.37
2023-02-27T11:45:05.740Z,43.31
2023-02-27T11:50:13.984Z,43.49
2023-02-27T11:55:03.654Z,43.03
2023-02-27T12:00:07.797Z,43.43
2023-02-27T12:05:20.546Z,42.40
2023-02-27T12:10:00.645Z,39.74
2023-02-27T12:15:12.341Z,39.23
2023-02-27T12:20:20.527Z,38.96
2023-02-27T12:25:04.914Z,40.00
2023-02-27T12:30:06.730Z,38.66
2023-02-27T12:35:14.929Z,39.13
2023-02-27T12:40:02.433Z,37.67
2023-02-27T12:45:15.616Z,39.97
2023-02-27T12:50:13.367Z,38.63
2023-02-27T12:55:14.007Z,37.43
2023-02-27T13:00:12.552Z,36.68
2023-02-27T13:05:13.860Z,38.67
2023-02-27T13:10:06.875Z,39.47
2023-02-27T13:15:03.066Z,38.72
2023-02-27T13:20:20.536Z,40.85
2023-02-27T13:25:08.600Z,41.98
2023-02-27T13:35:12.603Z,43.18
2023-02-27T13:40:00.632Z,43.73
2023-02-27T13:45:03.102Z,43.26
2023-02-27T13:50:13.163Z,44.68
2023-02-27T13:55:11.278Z,45.02
2023-02-27T14:00:05.320Z,45.61
2023-02-27T14:05:05.949Z,46.39
2023-02-27T14:10:06.475Z,45.80
2023-02-27T14:15:03.684Z,46.34
2023-02-27T14:20:03.923Z,45.42
2023-02-27T14:25:11.815Z,45.99
2023-02-27T14:30:05.149Z,45.51
2023-02-27T14:35:03.977Z,45.96
2023-02-27T14:40:03.451Z,46.82
2023-02-27T14:45:01.190Z,47.23
2023-02-27T14:50:02.731Z,47.82
2023-02-27T14:55:15.666Z,46.75
2023-02-27T15:00:01.265Z,46.82
2023-02-27T15:05:00.667Z,46.80
2023-02-27T15:10:05.093Z,47.19
2023-02-27T15:15:03.509Z,47.97
2023-02-27T15:20:00.924Z,47.56
2023-02-27T15:25:00.652Z,46.53
2023-02-27T15:30:01.149Z,47.12
2023-02-27T15:35:04.290Z,47.53
2023-02-27T15:40:01.089Z,47.43
2023-02-27T15:45:01.885Z,47.87
2023-02-27T15:50:10.809Z,47.80
2023-02-27T15:55:05.419Z,46.97
2023-02-27T16:00:01.865Z,47.74
2023-02-27T16:05:00.913Z,48.35
2023-02-27T16:10:06.726Z,49.16
2023-02-27T16:15:20.527Z,49.48
2023-02-27T16:20:11.538Z,49.26
2023-02-27T16:25:15.937Z,49.69
2023-02-27T16:30:00.709Z,49.77
2023-02-27T16:35:04.960Z,50.10
2023-02-27T16:40:00.713Z,50.45
2023-02-27T16:45:00.665Z,50.49
2023-02-27T16:50:00.765Z,51.00
2023-02-27T16:55:00.614Z,51.39
2023-02-27T17:00:04.259Z,51.89
2023-02-27T17:05:00.692Z,52.45
2023-02-27T17:10:00.782Z,52.97
2023-02-27T17:15:00.682Z,53.59
2023-02-27T17:20:00.629Z,53.45
2023-02-27T17:25:00.638Z,54.56
2023-02-27T17:30:00.750Z,54.70
2023-02-27T17:35:00.623Z,54.67
2023-02-27T17:40:00.718Z,55.23
2023-02-27T17:45:00.635Z,55.52
2023-02-27T17:50:00.757Z,55.97
2023-02-27T17:55:00.663Z,56.35
2023-02-27T18:00:02.555Z,56.47
2023-02-27T18:05:01.676Z,57.50
2023-02-27T18:10:00.916Z,57.12
2023-02-27T18:15:01.089Z,57.44
2023-02-27T18:20:00.818Z,57.74
2023-02-27T18:25:00.615Z,57.61
2023-02-27T18:30:00.697Z,58.46
2023-02-27T18:35:00.619Z,59.45
2023-02-27T18:40:00.753Z,59.51
2023-02-27T18:45:00.610Z,59.65
2023-02-27T18:50:00.852Z,60.71
2023-02-27T18:55:00.858Z,60.38
2023-02-27T19:00:01.493Z,61.01
2023-02-27T19:05:00.657Z,61.51
2023-02-27T19:10:00.628Z,61.79
2023-02-27T19:15:00.649Z,61.70
2023-02-27T19:20:00.686Z,62.13
2023-02-27T19:25:00.647Z,62.64
2023-02-27T19:30:00.693Z,62.88
2023-02-27T19:35:00.611Z,62.86
2023-02-27T19:40:00.640Z,63.22
2023-02-27T19:45:00.685Z,62.68
2023-02-27T19:50:00.624Z,63.71
2023-02-27T19:55:00.681Z,64.17
2023-02-27T20:00:01.247Z,64.46
2023-02-27T20:05:00.645Z,64.64
2023-02-27T20:10:00.653Z,64.60
2023-02-27T20:15:00.734Z,64.50
2023-02-27T20:20:00.795Z,64.10
2023-02-27T20:25:00.639Z,64.47
2023-02-27T20:30:00.672Z,64.38
2023-02-27T20:35:00.889Z,64.23
2023-02-27T20:40:01.001Z,64.37
2023-02-27T20:45:00.753Z,64.73
2023-02-27T20:50:00.633Z,64.88
2023-02-27T20:55:00.727Z,65.36
2023-02-27T21:00:02.612Z,65.30
2023-02-27T21:05:00.683Z,66.25
2023-02-27T21:10:00.636Z,65.83
2023-02-27T21:15:00.680Z,66.30
2023-02-27T21:20:00.642Z,66.45
2023-02-27T21:25:02.002Z,67.13
2023-02-27T21:30:00.663Z,67.32
2023-02-27T21:35:00.630Z,67.51
2023-02-27T21:40:00.655Z,67.78
2023-02-27T21:45:00.670Z,67.97
2023-02-27T21:50:01.655Z,67.77
2023-02-27T21:55:00.614Z,67.90
2023-02-27T22:00:01.625Z,68.60
2023-02-27T22:05:00.616Z,68.88
2023-02-27T22:10:00.620Z,69.22
2023-02-27T22:15:00.702Z,69.74
2023-02-27T22:20:00.622Z,69.63
2023-02-27T22:25:00.727Z,69.26
2023-02-27T22:30:00.665Z,69.47
2023-02-27T22:35:00.766Z,70.19
2023-02-27T22:40:00.670Z,69.88
2023-02-27T22:45:00.627Z,70.23
2023-02-27T22:50:01.043Z,70.94
2023-02-27T22:55:00.696Z,71.07
2023-02-27T23:00:01.693Z,70.54
2023-02-27T23:05:00.617Z,71.12
2023-02-27T23:10:00.687Z,71.30
2023-02-27T23:15:01.149Z,70.91
2023-02-27T23:20:00.651Z,71.65
2023-02-27T23:25:00.617Z,71.44
2023-02-27T23:30:00.670Z,71.83
2023-02-27T23:35:00.616Z,71.68
2023-02-27T23:40:00.609Z,71.96
2023-02-27T23:45:00.675Z,71.92
2023-02-27T23:50:00.601Z,71.38
2023-02-27T23:55:00.841Z,72.08
